Prague, Czech Republic

9:58 AM CET on March 04, 2015 (GMT +0100)
Jenec | Change Station
CLOSE
Current Station
Personal Weather Station
Location: Jenec, Stredocesky Kraj
Elevation: 1211 ft
Nearby Weather Stations

Elev 1211 ft 50.09 °N, 14.21 °E | Updated 8 minutes ago

Scattered Clouds
Scattered Clouds
41.4 °F
Feels Like 36 °F
N
9.2
Wind Variable Wind from NW
Gusts 16.8 mph

Today
High -- | Low -- °F
--% Chance of Precip.
Yesterday
High -- | Low -- °F
Precip. -- in
6:41 AM 5:49 PM
Waxing Gibbous, 98% visible
Pressure 30.15 in
Visibility 6.2 miles
Clouds Scattered Clouds 2400 ft
Windchill 36 °F
Dew Point 27 °F
Humidity 57%
Rainfall 0.00 in
Snow Depth Not available.
UV 2 out of 12
Pollen Not available.
Air Quality Not available.
Flu Activity Not available.
METAR LKPR 040830Z 27015KT 9999 SCT024 03/M02 Q1021 NOSIG

More Conditions Fewer Conditions

Pressure 30.15 in
Visibility 6.2 miles
Clouds Scattered Clouds 2400 ft
Windchill 36 °F
Dew Point 27 °F
Humidity 57%
Rainfall 0.00 in
Snow Depth Not available.
UV 2 out of 12
Pollen Not available.
Air Quality Not available.
Flu Activity Not available.
METAR LKPR 040830Z 27015KT 9999 SCT024 03/M02 Q1021 NOSIG

More Conditions Fewer Conditions

10-Day Weather Forecast

Almanac

Astronomy

Mar. 04, 2015 Rise Set
Actual Time
Civil Twilight
Nautical Twilight
Astronomical Twilight
Moon
Length of Visible Light
Length of Day
Tomorrow will be .
, % of the Moon is Illuminated

Today's Extremes

Country Highs Country Lows

Community

WunderPhotos

Upload Photos

1,802,416 photos uploaded!

WunderBlogs® & News

Nearby

Air Quality

  Air Quality AQ Index Pollutant
Not available.

Snow Depth

Station Depth Elevation

Earthquake Activity

City Distance Mag. Time & Date
Minimum magnitude displayed is 2.5.

Coastal Water Temperatures

Place Temperature

Nearby Weather Stations